HOURLY OBS INDEX

059

Mid North Coast

COFFS HARBOUR AIRPORT

Site: 059151
Alt: 3.5m
km of


  Time     Wind        Temp  DP   Baro     Rain since   Rain past  Vis(m), Cloud(base in m), Weather
  local        km/h                         9am  last   hr   10m    
Tue 07:00   NW  7/  9  23.6 20.3  1013.7    0.0   0.0   0.0   0.0   10000|BR2760 
Tue 07:30    W  9/ 11  23.8 19.9  1013.9    0.0   0.0   0.0   0.0   10000|SC2010 BR2520 BR3150 
Tue 08:00  WNW  7/  9  23.9 20.0  1014.3    0.0   0.0   0.0   0.0   10000|SC1620 SC2340 BR3300 
Tue 08:30   SW  7/  9  25.0 18.7  1014.2    0.0   0.0   0.0   0.0   10000|SC1860 SC2490 BR3300 
Tue 09:00    E  6/  7  25.3 20.3  1014.0    0.0   0.0   0.0   0.0   10000|SC2850 OC3300 
Tue 09:30    N 13/ 15  25.7 19.1  1014.1    0.0   0.0   0.0   0.0   10000|SC1470 SC1980 SC2700 
Tue 10:00   NW 11/ 15  26.4 18.8  1014.1    0.0   0.0   0.0   0.0   10000 
Tue 10:30  NNW 11/ 15  27.2 18.2  1013.9    0.0   0.0   0.0   0.0   10000|BR3750 
Tue 11:00   NW  9/ 11  28.1 19.3  1014.0    0.0   0.0   0.0   0.0   10000 
Tue 11:30  SSE  9/ 19  27.5 19.6  1013.9    0.0   0.0   0.0   0.0   10000|BR3750 
Tue 12:00   SE 11/ 15  26.8 21.1  1014.1    0.0   0.0   0.0   0.0   10000|OC3450 
Tue 12:30  ENE 11/ 15  27.4 21.0  1014.1    0.0   0.0   0.0   0.0   10000|OC3150 

KEMPSEY AIRPORT AWS

Site: 059007
Alt: 13.0m
6km WNW of KEMPSEY


  Time     Wind        Temp  DP   Baro     Rain since   Rain past  Vis(m), Cloud(base in m), Weather
  local        km/h                         9am  last   hr   10m    
Tue 07:00    C  0/  0  22.5 22.5  1013.3    0.2   0.0   0.0   0.0   ----- 
Tue 07:30  SSW  4/  7  22.4 22.2  1013.4    0.2   0.0   0.0   0.0   ----- 
Tue 08:00    N  9/ 11  22.7 22.2  1013.5    0.2   0.0   0.0   0.0   ----- 
Tue 08:30  SSE  4/  9  23.2 22.4  1013.6    0.2   0.0   0.0   0.0   ----- 
Tue 09:00  WSW  9/ 11  23.6 22.4  1014.1    0.2   0.0   0.0   0.0   ----- 
Tue 09:30    W  2/  7  24.6 21.7  1014.2    0.0   0.0   0.0   0.0   ----- 
Tue 10:00    C  0/  0  26.0 20.8  1014.4    0.0   0.0   0.0   0.0   ----- 
Tue 10:30    C  0/  0  26.9 21.4  1014.3    0.0   0.0   0.0   0.0   ----- 
Tue 11:00   SE 13/ 19  26.7 20.8  1014.5    0.0   0.0   0.0   0.0   ----- 
Tue 11:30   SE 15/ 20  26.5 22.1  1014.4    0.0   0.0   0.0   0.0   ----- 
Tue 12:00   SE 15/ 17  26.6 22.0  1014.4    0.0   0.0   0.0   0.0   ----- 
Tue 12:30    E 13/ 19  27.1 22.3  1014.0    0.0   0.0   0.0   0.0   -----